Time;durP1;ratioP1;P1;durP2;ratioP2;P2;SDS_P1;SDS_P2;PMS_P1;PMS_P2;Temp;Humidity;BMP_temperature;BMP_pressure;BME280_temperature;BME280_humidity;BME280_pressure;Samples;Min_cycle;Max_cycle;Signal;HPM_P1;HPM_P2
2022/12/19 00:00:21;;;;;;;73.67;26.47;;;-2.70;99.90;;;;;;5046129;28;20423;-61
2022/12/19 00:02:47;;;;;;;79.00;27.30;;;-2.70;99.90;;;;;;5022858;28;20216;-61
2022/12/19 00:05:12;;;;;;;85.80;28.97;;;-2.70;99.90;;;;;;5040397;28;20821;-60
2022/12/19 00:07:38;;;;;;;79.10;29.03;;;-2.70;99.90;;;;;;5045338;28;20170;-61
2022/12/19 00:10:05;;;;;;;82.43;28.60;;;-2.80;99.90;;;;;;5046389;28;20173;-61
2022/12/19 00:12:30;;;;;;;79.63;30.20;;;-2.70;99.90;;;;;;5019879;28;20174;-61
2022/12/19 00:14:56;;;;;;;78.77;27.83;;;-2.70;99.90;;;;;;5041852;28;20528;-60
2022/12/19 00:17:22;;;;;;;80.83;27.00;;;-2.70;99.90;;;;;;5034068;28;20243;-60
2022/12/19 00:19:48;;;;;;;76.33;27.47;;;-2.80;99.90;;;;;;5045469;28;20180;-60
2022/12/19 00:22:13;;;;;;;84.20;27.73;;;-2.80;99.90;;;;;;5048304;28;20440;-61
2022/12/19 00:24:39;;;;;;;75.33;28.30;;;-2.70;99.90;;;;;;5038167;28;20496;-60
2022/12/19 00:27:04;;;;;;;78.47;28.20;;;-2.70;99.90;;;;;;5046367;28;20232;-61
2022/12/19 00:29:30;;;;;;;88.70;30.73;;;-2.70;99.90;;;;;;5037953;28;20204;-61
2022/12/19 00:31:57;;;;;;;80.80;30.03;;;-2.70;99.90;;;;;;5041010;28;20182;-60
2022/12/19 00:34:22;;;;;;;77.97;28.33;;;-2.70;99.90;;;;;;5046570;28;20691;-60
2022/12/19 00:36:48;;;;;;;79.77;27.57;;;-2.70;99.90;;;;;;5044721;28;20476;-60
2022/12/19 00:39:14;;;;;;;85.80;29.77;;;-2.70;99.90;;;;;;5034477;28;20875;-60
2022/12/19 00:41:40;;;;;;;80.07;27.53;;;-2.70;99.90;;;;;;5022211;28;20181;-60
2022/12/19 00:44:09;;;;;;;73.73;29.73;;;-2.70;99.90;;;;;;5027537;28;20215;-61
2022/12/19 00:46:36;;;;;;;77.50;28.63;;;-2.70;99.90;;;;;;5034109;28;20870;-61
2022/12/19 00:49:02;;;;;;;78.43;28.10;;;-2.70;99.90;;;;;;5042227;28;20863;-60
2022/12/19 00:51:30;;;;;;;82.27;29.83;;;-2.70;99.90;;;;;;5042830;28;20467;-60
2022/12/19 00:53:56;;;;;;;90.20;30.07;;;-2.70;99.90;;;;;;5042091;28;20489;-61
2022/12/19 00:56:25;;;;;;;88.57;31.90;;;-2.70;99.90;;;;;;5038809;28;20462;-59
2022/12/19 00:58:52;;;;;;;85.73;30.20;;;-2.60;99.90;;;;;;5042321;28;20480;-61
2022/12/19 01:01:26;;;;;;;92.47;30.80;;;-2.60;99.90;;;;;;5043221;28;20447;-61
2022/12/19 01:03:52;;;;;;;78.30;30.00;;;-2.60;99.90;;;;;;5043308;28;20473;-60
2022/12/19 01:06:18;;;;;;;72.60;28.23;;;-2.60;99.90;;;;;;5039719;28;20462;-60
2022/12/19 01:08:45;;;;;;;80.53;30.50;;;-2.60;99.90;;;;;;5039875;28;20925;-60
2022/12/19 01:11:11;;;;;;;86.83;32.10;;;-2.60;99.90;;;;;;5042955;28;20427;-60
2022/12/19 01:13:38;;;;;;;81.20;30.23;;;-2.60;99.90;;;;;;5045834;28;21005;-61
2022/12/19 01:16:06;;;;;;;91.40;31.47;;;-2.50;99.90;;;;;;5040134;28;20463;-61
2022/12/19 01:18:32;;;;;;;90.80;30.83;;;-2.60;99.90;;;;;;5043591;28;20431;-61
2022/12/19 01:21:00;;;;;;;87.80;30.00;;;-2.60;99.90;;;;;;5046202;28;20450;-60
2022/12/19 01:23:26;;;;;;;92.67;31.27;;;-2.50;99.90;;;;;;5023930;28;20463;-61
2022/12/19 01:25:53;;;;;;;85.00;29.67;;;-2.50;99.90;;;;;;5046702;28;20453;-61
2022/12/19 01:28:18;;;;;;;86.13;29.00;;;-2.50;99.90;;;;;;5038803;28;20436;-60
2022/12/19 01:30:44;;;;;;;78.47;29.20;;;-2.50;99.90;;;;;;5047072;28;20415;-61
2022/12/19 01:33:13;;;;;;;79.83;28.90;;;-2.50;99.90;;;;;;5036679;28;20525;-61
2022/12/19 01:35:40;;;;;;;75.23;28.03;;;-2.50;99.90;;;;;;5037411;28;20267;-60
2022/12/19 01:38:06;;;;;;;77.30;27.67;;;-2.50;99.90;;;;;;5029715;28;20436;-61
2022/12/19 01:40:32;;;;;;;91.97;28.87;;;-2.40;99.90;;;;;;5044407;28;20438;-61
2022/12/19 01:42:59;;;;;;;73.77;26.70;;;-2.40;99.90;;;;;;5052087;28;20185;-59
2022/12/19 01:45:33;;;;;;;80.33;29.63;;;-2.40;99.90;;;;;;5027791;28;20463;-61
2022/12/19 01:48:02;;;;;;;70.83;26.33;;;-2.40;99.90;;;;;;5041984;28;20454;-60
2022/12/19 01:50:39;;;;;;;80.07;28.40;;;-2.40;99.90;;;;;;5043625;28;20515;-60
2022/12/19 01:53:07;;;;;;;71.93;25.50;;;-2.40;99.90;;;;;;5034936;28;20434;-61
2022/12/19 01:55:34;;;;;;;71.70;26.23;;;-2.40;99.90;;;;;;5027683;28;20455;-61
2022/12/19 01:58:01;;;;;;;92.23;31.20;;;-2.40;99.90;;;;;;5031699;28;21120;-60
2022/12/19 02:00:26;;;;;;;83.17;28.73;;;-2.30;99.90;;;;;;5044661;28;20442;-61
2022/12/19 02:02:58;;;;;;;74.83;28.70;;;-2.30;99.90;;;;;;5044715;28;20428;-62
2022/12/19 02:05:23;;;;;;;76.37;29.73;;;-2.30;99.90;;;;;;5042826;28;20224;-61
2022/12/19 02:07:50;;;;;;;66.40;26.30;;;-2.30;99.90;;;;;;5026689;28;20552;-60
2022/12/19 02:10:16;;;;;;;75.00;28.37;;;-2.30;99.90;;;;;;5026151;28;20180;-60
2022/12/19 02:12:44;;;;;;;70.63;28.20;;;-2.30;99.90;;;;;;5042746;28;20448;-61
2022/12/19 02:15:11;;;;;;;76.87;26.60;;;-2.30;99.90;;;;;;5042732;28;20217;-60
2022/12/19 02:17:45;;;;;;;80.67;28.27;;;-2.30;99.90;;;;;;5042899;28;20436;-60
2022/12/19 02:20:33;;;;;;;78.90;27.97;;;-2.30;99.90;;;;;;5045825;28;20427;-60
2022/12/19 02:23:23;;;;;;;71.67;26.03;;;-2.30;99.90;;;;;;5044588;28;20439;-60
2022/12/19 02:25:56;;;;;;;75.67;28.43;;;-2.20;99.90;;;;;;5036404;28;20452;-60
2022/12/19 02:28:59;;;;;;;79.57;28.80;;;-2.20;99.90;;;;;;5050284;28;20430;-60
2022/12/19 02:31:33;;;;;;;76.23;27.63;;;-2.20;99.90;;;;;;5042809;28;20855;-61
2022/12/19 02:34:31;;;;;;;71.90;27.07;;;-2.20;99.90;;;;;;5046935;28;20509;-60
2022/12/19 02:37:10;;;;;;;83.70;29.53;;;-2.20;99.90;;;;;;5023029;28;20446;-60
2022/12/19 02:40:03;;;;;;;73.20;27.47;;;-2.10;99.90;;;;;;5032855;28;20439;-60
2022/12/19 02:42:38;;;;;;;73.30;28.60;;;-2.10;99.90;;;;;;5021508;28;20810;-61
2022/12/19 02:45:06;;;;;;;73.40;25.33;;;-2.10;99.90;;;;;;5046737;28;20467;-61
2022/12/19 02:47:33;;;;;;;72.40;26.70;;;-2.10;99.90;;;;;;5040634;28;20435;-60
2022/12/19 02:49:59;;;;;;;72.70;26.50;;;-2.10;99.90;;;;;;5048836;28;21573;-60
2022/12/19 02:52:25;;;;;;;72.30;26.77;;;-2.10;99.90;;;;;;5039593;28;20916;-61
2022/12/19 02:54:55;;;;;;;77.53;27.50;;;-2.10;99.90;;;;;;5027322;28;20501;-61
2022/12/19 02:57:32;;;;;;;81.60;28.73;;;-2.10;99.90;;;;;;5044331;28;20177;-60
2022/12/19 03:00:01;;;;;;;76.67;27.53;;;-2.10;99.90;;;;;;5045962;28;20913;-61
2022/12/19 03:02:33;;;;;;;76.87;26.60;;;-2.10;99.90;;;;;;5047346;28;20432;-60
2022/12/19 03:05:06;;;;;;;77.63;27.20;;;-2.10;99.90;;;;;;5032682;28;20503;-59
2022/12/19 03:07:40;;;;;;;67.83;26.53;;;-2.00;99.90;;;;;;5038760;28;20510;-61
2022/12/19 03:10:29;;;;;;;75.10;28.30;;;-2.00;99.90;;;;;;5039960;28;20537;-60
2022/12/19 03:13:24;;;;;;;74.50;26.80;;;-2.00;99.90;;;;;;5039352;28;20463;-60
2022/12/19 03:15:50;;;;;;;76.27;28.00;;;-2.00;99.90;;;;;;5035844;28;20497;-60
2022/12/19 03:18:17;;;;;;;79.87;27.40;;;-2.00;99.90;;;;;;5047928;28;20439;-60
2022/12/19 03:21:05;;;;;;;71.00;27.13;;;-2.00;99.90;;;;;;5035207;28;20460;-60
2022/12/19 03:23:31;;;;;;;69.90;27.63;;;-2.00;99.90;;;;;;5041376;28;20591;-60
2022/12/19 03:26:08;;;;;;;76.60;27.27;;;-2.00;99.90;;;;;;5044467;28;20483;-60
2022/12/19 03:28:50;;;;;;;68.27;26.90;;;-2.00;99.90;;;;;;5046988;28;20500;-61
2022/12/19 03:31:18;;;;;;;74.80;27.10;;;-1.90;99.90;;;;;;5048406;28;20963;-60
2022/12/19 03:33:47;;;;;;;71.30;27.30;;;-1.90;99.90;;;;;;5028410;28;20443;-61
2022/12/19 03:36:25;;;;;;;75.10;27.30;;;-1.90;99.90;;;;;;5044352;28;20487;-60
2022/12/19 03:38:52;;;;;;;81.10;27.10;;;-1.90;99.90;;;;;;5019905;28;20439;-59
2022/12/19 03:43:07;;;;;;;74.47;25.97;;;-1.90;99.90;;;;;;5042727;28;20428;-59
2022/12/19 03:44:09;;;;;;;74.37;27.90;;;-1.80;99.90;;;;;;5041721;28;20463;-60
2022/12/19 03:46:40;;;;;;;71.47;26.97;;;-1.80;99.90;;;;;;5022352;28;20819;-60
2022/12/19 03:49:06;;;;;;;68.33;27.50;;;-1.80;99.90;;;;;;5031080;28;21019;-59
2022/12/19 03:51:53;;;;;;;91.57;29.57;;;-1.80;99.90;;;;;;5048293;28;20436;-59
2022/12/19 03:54:29;;;;;;;70.33;26.47;;;-1.80;99.90;;;;;;5041054;28;20832;-59
2022/12/19 03:57:01;;;;;;;71.13;28.03;;;-1.70;99.90;;;;;;5047938;28;20468;-60
2022/12/19 03:59:42;;;;;;;72.70;26.80;;;-1.70;99.90;;;;;;5045547;28;20487;-60
2022/12/19 04:02:10;;;;;;;68.80;26.93;;;-1.70;99.90;;;;;;5022429;28;20439;-60
2022/12/19 04:04:43;;;;;;;73.27;27.70;;;-1.70;99.90;;;;;;5035673;28;20471;-59
2022/12/19 04:07:11;;;;;;;67.70;25.90;;;-1.70;99.90;;;;;;5042014;28;20465;-60
2022/12/19 04:09:39;;;;;;;74.03;27.10;;;-1.70;99.90;;;;;;5041045;28;20431;-60
2022/12/19 04:12:13;;;;;;;75.07;26.93;;;-1.70;99.90;;;;;;5039083;28;21006;-60
2022/12/19 04:14:39;;;;;;;68.93;26.87;;;-1.60;99.90;;;;;;5038015;28;20480;-59
2022/12/19 04:17:33;;;;;;;67.47;25.50;;;-1.60;99.90;;;;;;5047232;28;20807;-60
2022/12/19 04:20:14;;;;;;;70.30;27.77;;;-1.60;99.90;;;;;;5048123;28;20431;-60
2022/12/19 04:23:03;;;;;;;65.27;25.87;;;-1.60;99.90;;;;;;5037785;28;20515;-60
2022/12/19 04:25:36;;;;;;;75.83;29.33;;;-1.50;99.90;;;;;;5039642;28;20537;-58
2022/12/19 04:28:06;;;;;;;82.90;27.53;;;-1.50;99.90;;;;;;5046618;28;20432;-59
2022/12/19 04:30:33;;;;;;;77.90;28.17;;;-1.60;99.90;;;;;;5045489;28;21128;-59
2022/12/19 04:32:59;;;;;;;75.73;26.10;;;-1.50;99.90;;;;;;5023971;28;20431;-60
2022/12/19 04:35:24;;;;;;;83.87;27.80;;;-1.60;99.90;;;;;;5046183;28;20442;-60
2022/12/19 04:37:51;;;;;;;102.30;28.60;;;-1.50;99.90;;;;;;5038566;28;21228;-59
2022/12/19 04:40:17;;;;;;;80.73;28.23;;;-1.50;99.90;;;;;;5020508;28;20573;-59
2022/12/19 04:42:42;;;;;;;79.27;29.00;;;-1.50;99.90;;;;;;5028727;28;20427;-60
2022/12/19 04:45:08;;;;;;;69.60;27.67;;;-1.50;99.90;;;;;;5048371;28;20612;-59
2022/12/19 04:47:34;;;;;;;84.87;29.03;;;-1.50;99.90;;;;;;5045761;28;20546;-60
2022/12/19 04:49:59;;;;;;;69.80;28.40;;;-1.50;99.90;;;;;;5048766;28;20437;-60
2022/12/19 04:52:25;;;;;;;81.53;28.67;;;-1.50;99.90;;;;;;5038163;28;20853;-59
2022/12/19 04:54:51;;;;;;;79.10;28.27;;;-1.50;99.90;;;;;;5031052;28;20674;-59
2022/12/19 04:57:16;;;;;;;75.03;27.20;;;-1.50;99.90;;;;;;5034649;28;20232;-59
2022/12/19 04:59:42;;;;;;;76.97;27.10;;;-1.40;99.90;;;;;;5053077;28;20185;-60
2022/12/19 05:02:07;;;;;;;69.60;26.30;;;-1.30;99.90;;;;;;5026092;28;20193;-60
2022/12/19 05:04:33;;;;;;;80.30;26.90;;;-1.30;99.90;;;;;;5041654;28;20205;-59
2022/12/19 05:06:59;;;;;;;70.97;27.23;;;-1.30;99.90;;;;;;5048818;28;20239;-59
2022/12/19 05:09:24;;;;;;;78.50;29.20;;;-1.20;99.90;;;;;;5033757;28;20186;-58
2022/12/19 05:11:50;;;;;;;83.17;30.47;;;-1.20;99.90;;;;;;5026416;28;20642;-60
2022/12/19 05:14:15;;;;;;;70.80;27.73;;;-1.20;99.90;;;;;;5044830;28;20569;-59
2022/12/19 05:16:41;;;;;;;67.23;27.00;;;-1.20;99.90;;;;;;5030918;28;20215;-60
2022/12/19 05:19:07;;;;;;;77.87;30.57;;;-1.20;99.90;;;;;;5043590;28;20285;-60
2022/12/19 05:21:33;;;;;;;81.83;29.87;;;-1.20;99.90;;;;;;5031692;28;20184;-60
2022/12/19 05:23:58;;;;;;;84.67;31.37;;;-1.20;99.90;;;;;;5040341;28;20482;-60
2022/12/19 05:26:24;;;;;;;71.17;28.90;;;-1.20;99.90;;;;;;5020178;28;20204;-60
2022/12/19 05:28:50;;;;;;;75.73;31.00;;;-1.20;99.90;;;;;;5031902;28;20210;-60
2022/12/19 05:31:18;;;;;;;78.10;31.77;;;-1.20;99.90;;;;;;5041103;28;20873;-60
2022/12/19 05:33:45;;;;;;;78.77;29.03;;;-1.20;99.90;;;;;;5041530;28;20272;-62
2022/12/19 05:36:12;;;;;;;81.20;31.70;;;-1.20;99.90;;;;;;5025662;28;20478;-58
2022/12/19 05:38:38;;;;;;;80.93;30.53;;;-1.20;99.90;;;;;;5027153;28;20440;-58
2022/12/19 05:41:08;;;;;;;95.50;33.10;;;-1.20;99.90;;;;;;5035324;28;20433;-59
2022/12/19 05:43:34;;;;;;;78.73;29.53;;;-1.10;99.90;;;;;;5008589;28;20753;-58
2022/12/19 05:46:00;;;;;;;76.43;31.67;;;-1.10;99.90;;;;;;5026863;28;20519;-59
2022/12/19 05:48:25;;;;;;;98.83;31.50;;;-1.10;99.90;;;;;;5026356;28;20177;-59
2022/12/19 05:50:51;;;;;;;80.23;31.10;;;-1.10;99.90;;;;;;5034930;28;20181;-59
2022/12/19 05:53:17;;;;;;;77.17;31.43;;;-1.10;99.90;;;;;;5040167;28;20186;-58
2022/12/19 05:55:44;;;;;;;77.17;31.07;;;-1.10;99.90;;;;;;5041095;28;20198;-59
2022/12/19 05:58:09;;;;;;;79.87;30.17;;;-1.00;99.90;;;;;;5037858;28;20431;-59
2022/12/19 06:00:35;;;;;;;75.93;28.17;;;-1.00;99.90;;;;;;5046585;28;20481;-59
2022/12/19 06:03:01;;;;;;;79.57;30.17;;;-1.00;99.90;;;;;;5036693;28;20181;-58
2022/12/19 06:05:27;;;;;;;70.57;27.27;;;-1.00;99.90;;;;;;5023056;28;20479;-60
2022/12/19 06:07:53;;;;;;;73.67;28.93;;;-1.00;99.90;;;;;;5043287;28;20200;-59
2022/12/19 06:10:18;;;;;;;76.97;30.50;;;-0.90;99.90;;;;;;5040699;28;20178;-59
2022/12/19 06:12:44;;;;;;;82.00;31.07;;;-1.00;99.90;;;;;;5041049;28;20491;-58
2022/12/19 06:15:10;;;;;;;77.23;28.57;;;-1.00;99.90;;;;;;5034154;28;20267;-59
2022/12/19 06:17:36;;;;;;;78.53;31.40;;;-1.00;99.90;;;;;;5040343;28;20249;-58
2022/12/19 06:20:01;;;;;;;73.03;29.50;;;-1.00;99.90;;;;;;5045565;28;21001;-59
2022/12/19 06:22:27;;;;;;;76.93;31.10;;;-1.00;99.90;;;;;;5031200;28;20705;-60
2022/12/19 06:24:53;;;;;;;81.23;30.03;;;-0.90;99.90;;;;;;5045944;28;20465;-59
2022/12/19 06:27:18;;;;;;;70.20;27.60;;;-0.90;99.90;;;;;;5026728;28;20708;-59
2022/12/19 06:29:44;;;;;;;70.30;30.03;;;-0.90;99.90;;;;;;5048233;28;20178;-59
2022/12/19 06:32:09;;;;;;;78.13;27.80;;;-0.90;99.90;;;;;;5041418;28;20197;-59
2022/12/19 06:34:35;;;;;;;78.77;29.77;;;-0.90;99.90;;;;;;5037536;28;20218;-59
2022/12/19 06:37:01;;;;;;;80.40;28.80;;;-0.90;99.90;;;;;;5039180;28;20192;-58
2022/12/19 06:39:26;;;;;;;77.70;29.50;;;-0.80;99.90;;;;;;5041189;28;20181;-59
2022/12/19 06:44:36;;;;;;;72.03;28.33;;;-0.80;99.90;;;;;;5038573;28;20244;-59
2022/12/19 06:47:02;;;;;;;69.30;27.37;;;-0.80;99.90;;;;;;5044766;28;20467;-60
2022/12/19 06:49:27;;;;;;;73.23;28.90;;;-0.80;99.90;;;;;;5034241;28;20709;-59
2022/12/19 06:51:53;;;;;;;72.43;28.67;;;-0.70;99.90;;;;;;5039503;28;20182;-60
2022/12/19 06:54:18;;;;;;;80.97;28.70;;;-0.70;99.90;;;;;;5036403;28;20221;-58
2022/12/19 06:56:44;;;;;;;80.63;30.10;;;-0.70;99.90;;;;;;5021175;28;20287;-60
2022/12/19 06:59:15;;;;;;;74.80;28.43;;;-0.70;99.90;;;;;;5012817;28;20272;-60
2022/12/19 07:01:58;;;;;;;72.57;25.83;;;-0.70;99.90;;;;;;5035242;28;20592;-60
2022/12/19 07:04:34;;;;;;;78.93;27.87;;;-0.70;99.90;;;;;;5050948;28;20459;-60
2022/12/19 07:07:00;;;;;;;82.10;30.00;;;-0.70;99.90;;;;;;5040885;28;20432;-60
2022/12/19 07:09:28;;;;;;;73.53;28.20;;;-0.70;99.90;;;;;;5036390;28;20577;-60
2022/12/19 07:11:54;;;;;;;77.73;29.43;;;-0.60;99.90;;;;;;5021443;28;20202;-60
2022/12/19 07:14:19;;;;;;;67.43;27.83;;;-0.70;99.90;;;;;;5029736;28;20468;-59
2022/12/19 07:16:47;;;;;;;68.13;27.40;;;-0.70;99.90;;;;;;5026123;28;20189;-59
2022/12/19 07:19:13;;;;;;;78.23;26.77;;;-0.70;99.90;;;;;;5044355;28;20308;-59
2022/12/19 07:21:39;;;;;;;76.50;28.53;;;-0.60;99.90;;;;;;5032615;28;20437;-60
2022/12/19 07:24:06;;;;;;;72.33;27.20;;;-0.70;99.90;;;;;;5022163;28;20466;-60
2022/12/19 07:26:32;;;;;;;65.23;26.77;;;-0.60;99.90;;;;;;5037839;28;20483;-58
2022/12/19 07:28:58;;;;;;;74.50;27.73;;;-0.60;99.90;;;;;;5047745;28;20428;-60
2022/12/19 07:31:24;;;;;;;71.87;28.37;;;-0.60;99.90;;;;;;5047945;28;20404;-60
2022/12/19 07:33:49;;;;;;;85.13;27.67;;;-0.60;99.90;;;;;;5041997;28;20440;-59
2022/12/19 07:36:15;;;;;;;63.43;25.80;;;-0.60;99.90;;;;;;5041159;28;20837;-59
2022/12/19 07:38:40;;;;;;;67.27;27.17;;;-0.60;99.90;;;;;;5030282;28;20267;-59
2022/12/19 07:41:06;;;;;;;70.00;26.67;;;-0.60;99.90;;;;;;5042616;28;20247;-59
2022/12/19 07:43:32;;;;;;;71.60;27.00;;;-0.60;99.90;;;;;;5039318;28;20188;-58
2022/12/19 07:45:57;;;;;;;77.17;25.27;;;-0.60;99.90;;;;;;5043744;28;20194;-59
2022/12/19 07:48:23;;;;;;;84.93;29.10;;;-0.50;99.90;;;;;;5029516;28;20191;-57
2022/12/19 07:50:49;;;;;;;71.47;27.33;;;-0.50;99.90;;;;;;5041208;28;20189;-59
2022/12/19 07:53:15;;;;;;;69.73;28.43;;;-0.50;99.90;;;;;;5046178;28;20188;-59
2022/12/19 07:55:41;;;;;;;77.87;30.10;;;-0.50;99.90;;;;;;5046183;28;20206;-59
2022/12/19 07:58:09;;;;;;;67.13;28.53;;;-0.50;99.90;;;;;;5042985;28;20968;-59
2022/12/19 08:00:35;;;;;;;72.93;27.27;;;-0.50;99.90;;;;;;5039245;28;20233;-60
2022/12/19 08:03:01;;;;;;;76.43;27.77;;;-0.40;99.90;;;;;;5037662;28;20430;-59
2022/12/19 08:05:27;;;;;;;78.07;30.77;;;-0.40;99.90;;;;;;5047096;28;20466;-60
2022/12/19 08:07:53;;;;;;;67.70;28.07;;;-0.40;99.90;;;;;;5019174;28;20923;-60
2022/12/19 08:10:21;;;;;;;79.13;29.40;;;-0.40;99.90;;;;;;5038187;28;20181;-60
2022/12/19 08:12:47;;;;;;;71.97;28.03;;;-0.40;99.90;;;;;;5035321;28;20485;-58
2022/12/19 08:15:13;;;;;;;71.33;28.20;;;-0.30;99.90;;;;;;5036907;28;20556;-60
2022/12/19 08:17:39;;;;;;;75.27;29.27;;;-0.30;99.90;;;;;;5038179;28;20196;-60
2022/12/19 08:20:06;;;;;;;71.43;29.43;;;-0.30;99.90;;;;;;5038586;28;20442;-60
2022/12/19 08:22:32;;;;;;;69.73;26.73;;;-0.20;99.90;;;;;;5036209;28;20435;-58
2022/12/19 08:24:57;;;;;;;78.57;26.93;;;-0.20;99.90;;;;;;5033732;28;20559;-60
2022/12/19 08:27:23;;;;;;;63.03;25.93;;;-0.20;99.90;;;;;;5036482;28;22284;-60
2022/12/19 08:29:49;;;;;;;74.47;27.83;;;-0.20;99.90;;;;;;5041500;28;20674;-61
2022/12/19 08:32:15;;;;;;;65.60;27.20;;;-0.10;99.90;;;;;;5040119;28;20175;-59
2022/12/19 08:34:41;;;;;;;63.73;24.87;;;-0.10;99.90;;;;;;5034399;28;20197;-59
2022/12/19 08:37:08;;;;;;;64.57;26.10;;;-0.10;99.90;;;;;;5041273;28;20440;-59
2022/12/19 08:39:33;;;;;;;65.10;26.80;;;-0.10;99.90;;;;;;5022635;28;20717;-59
2022/12/19 08:41:59;;;;;;;67.50;27.23;;;0.00;99.90;;;;;;5043020;28;20536;-60
2022/12/19 08:44:25;;;;;;;77.07;28.43;;;0.00;99.90;;;;;;5041305;28;20201;-61
2022/12/19 08:46:51;;;;;;;67.50;26.33;;;0.00;99.90;;;;;;5036333;28;20526;-60
2022/12/19 08:49:18;;;;;;;63.77;27.00;;;0.00;99.90;;;;;;5051987;28;20472;-58
2022/12/19 08:51:43;;;;;;;61.10;26.30;;;0.00;99.90;;;;;;5045992;28;20178;-61
2022/12/19 08:54:11;;;;;;;64.60;27.13;;;0.10;99.90;;;;;;5045256;28;20432;-60
2022/12/19 08:56:37;;;;;;;80.53;28.43;;;0.10;99.90;;;;;;5052041;28;20246;-60
2022/12/19 08:59:03;;;;;;;68.87;26.00;;;0.10;99.90;;;;;;5043859;28;20899;-61
2022/12/19 09:01:28;;;;;;;72.93;28.63;;;0.10;99.90;;;;;;5055563;28;20458;-60
2022/12/19 09:03:57;;;;;;;78.97;29.30;;;0.10;99.90;;;;;;5027645;28;20451;-57
2022/12/19 09:06:23;;;;;;;71.93;28.43;;;0.10;99.90;;;;;;5038705;28;20217;-57
2022/12/19 09:08:49;;;;;;;67.30;27.63;;;0.10;99.90;;;;;;5037957;28;20455;-56
2022/12/19 09:11:16;;;;;;;61.70;26.80;;;0.20;99.90;;;;;;5042393;28;20437;-55
2022/12/19 09:13:42;;;;;;;76.73;28.50;;;0.20;99.90;;;;;;5051209;28;20600;-56
2022/12/19 09:16:17;;;;;;;63.47;28.30;;;0.20;99.90;;;;;;5046186;28;20488;-60
2022/12/19 09:18:45;;;;;;;68.90;28.20;;;0.20;99.90;;;;;;5024232;28;20974;-56
2022/12/19 09:21:12;;;;;;;75.30;29.83;;;0.30;99.90;;;;;;5028979;28;20497;-56
2022/12/19 09:23:38;;;;;;;72.17;30.13;;;0.30;99.90;;;;;;5044974;28;20468;-55
2022/12/19 09:26:09;;;;;;;75.13;27.50;;;0.30;99.90;;;;;;5021370;28;20451;-57
2022/12/19 09:28:36;;;;;;;80.93;31.33;;;0.40;99.90;;;;;;5038725;28;20429;-57
2022/12/19 09:31:14;;;;;;;73.80;31.17;;;0.40;99.90;;;;;;5039100;28;20983;-57
2022/12/19 09:33:40;;;;;;;74.00;31.70;;;0.50;99.90;;;;;;5039672;28;20769;-57
2022/12/19 09:36:07;;;;;;;70.30;30.90;;;0.60;99.90;;;;;;5036426;28;20467;-60
2022/12/19 09:38:33;;;;;;;83.87;33.40;;;0.60;99.90;;;;;;5047069;28;20200;-60
2022/12/19 09:41:15;;;;;;;78.80;32.30;;;0.70;99.90;;;;;;5041708;28;20440;-60
2022/12/19 09:44:00;;;;;;;79.50;31.87;;;0.80;99.90;;;;;;5036478;28;20545;-56
2022/12/19 09:46:46;;;;;;;69.60;30.03;;;0.90;99.90;;;;;;5031741;28;20991;-60
2022/12/19 09:49:15;;;;;;;69.17;30.10;;;1.00;99.90;;;;;;5025164;28;20439;-60
2022/12/19 09:52:04;;;;;;;56.10;25.80;;;1.10;99.90;;;;;;5045251;28;20423;-61
2022/12/19 09:54:37;;;;;;;74.40;26.97;;;1.20;99.90;;;;;;5043175;28;20427;-61
2022/12/19 09:57:09;;;;;;;55.47;23.97;;;1.30;99.90;;;;;;5039017;28;20797;-59
2022/12/19 09:59:44;;;;;;;64.00;24.27;;;1.40;99.90;;;;;;5041055;28;20433;-60
2022/12/19 10:02:44;;;;;;;57.27;25.13;;;1.40;99.90;;;;;;5045709;28;20501;-61
2022/12/19 10:05:44;;;;;;;55.30;24.37;;;1.50;99.90;;;;;;5044672;28;20486;-59
2022/12/19 10:08:30;;;;;;;60.37;27.10;;;1.50;99.90;;;;;;5041630;28;20513;-61
2022/12/19 10:11:14;;;;;;;65.63;27.50;;;1.60;99.90;;;;;;5029548;28;20467;-60
2022/12/19 10:13:42;;;;;;;63.20;28.37;;;1.60;99.90;;;;;;5033660;28;20434;-60
2022/12/19 10:16:17;;;;;;;67.03;27.40;;;1.70;99.90;;;;;;5047000;28;20514;-61
2022/12/19 10:19:03;;;;;;;78.07;29.20;;;1.60;99.90;;;;;;5044831;28;20441;-60
2022/12/19 10:21:29;;;;;;;68.50;29.77;;;1.60;99.90;;;;;;5037423;28;20433;-60
2022/12/19 10:24:06;;;;;;;70.57;29.10;;;1.60;99.90;;;;;;5031245;28;22040;-56
2022/12/19 10:26:58;;;;;;;73.17;29.10;;;1.60;99.90;;;;;;5039696;28;20285;-58
2022/12/19 10:29:42;;;;;;;72.93;30.13;;;1.70;99.90;;;;;;5037715;28;20425;-59
2022/12/19 10:32:25;;;;;;;64.07;27.90;;;1.70;99.90;;;;;;5046616;28;20425;-57
2022/12/19 10:34:52;;;;;;;61.70;28.43;;;1.70;99.90;;;;;;5036974;28;20821;-57
2022/12/19 10:37:30;;;;;;;65.40;27.33;;;1.70;99.90;;;;;;5032595;28;20460;-59
2022/12/19 10:40:20;;;;;;;60.17;26.33;;;1.70;99.90;;;;;;5037374;28;20446;-60
2022/12/19 10:42:51;;;;;;;63.13;26.97;;;1.70;99.90;;;;;;5045434;28;20847;-57
2022/12/19 10:45:20;;;;;;;66.20;27.80;;;1.70;99.90;;;;;;5045504;28;20468;-61
2022/12/19 10:47:55;;;;;;;66.43;29.43;;;1.80;99.90;;;;;;5045877;28;20484;-61
2022/12/19 10:50:26;;;;;;;66.47;27.50;;;1.80;99.90;;;;;;5029928;28;20428;-61
2022/12/19 10:52:52;;;;;;;64.37;26.43;;;1.80;99.90;;;;;;5042435;28;20480;-60
2022/12/19 10:55:41;;;;;;;60.33;26.50;;;1.80;99.90;;;;;;5033276;28;20446;-60
2022/12/19 10:58:30;;;;;;;73.43;28.20;;;1.80;99.90;;;;;;5025304;28;20189;-61
2022/12/19 11:00:59;;;;;;;60.87;27.30;;;1.80;99.90;;;;;;5035476;28;20855;-61
2022/12/19 11:03:24;;;;;;;57.87;26.97;;;1.80;99.90;;;;;;5045036;28;20420;-61
2022/12/19 11:05:55;;;;;;;61.07;28.53;;;1.80;99.90;;;;;;5038860;28;21051;-61
2022/12/19 11:08:25;;;;;;;64.00;29.27;;;1.80;99.90;;;;;;5037478;28;20241;-61
2022/12/19 11:11:17;;;;;;;68.57;30.70;;;1.90;99.90;;;;;;5041832;28;20421;-61
2022/12/19 11:13:46;;;;;;;68.40;29.10;;;2.00;99.90;;;;;;5031177;28;20437;-62
2022/12/19 11:16:19;;;;;;;59.17;28.40;;;2.20;99.90;;;;;;5033177;28;20461;-60
2022/12/19 11:18:47;;;;;;;70.70;28.33;;;2.30;99.90;;;;;;5042663;28;20469;-56
2022/12/19 11:21:21;;;;;;;65.90;27.63;;;2.40;99.90;;;;;;5043307;28;20935;-57
2022/12/19 11:23:51;;;;;;;59.47;27.40;;;2.50;99.90;;;;;;5037314;28;20997;-54
2022/12/19 11:26:39;;;;;;;58.63;26.47;;;2.60;99.90;;;;;;5045755;28;20480;-56
2022/12/19 11:29:26;;;;;;;57.10;25.07;;;2.70;99.90;;;;;;5049212;28;20431;-55
2022/12/19 11:31:59;;;;;;;55.90;25.47;;;2.70;99.90;;;;;;5044545;28;20441;-58
2022/12/19 11:34:28;;;;;;;57.57;24.60;;;2.70;99.90;;;;;;5042420;28;21061;-55
2022/12/19 11:37:02;;;;;;;49.83;21.27;;;2.70;99.90;;;;;;5041089;28;20443;-55
2022/12/19 11:39:57;;;;;;;55.93;22.73;;;2.60;99.90;;;;;;5045365;28;20454;-56
2022/12/19 11:42:32;;;;;;;49.43;23.80;;;2.60;99.90;;;;;;5024017;28;20427;-55
2022/12/19 11:45:01;;;;;;;58.17;25.23;;;2.60;99.90;;;;;;5052226;28;20996;-54
2022/12/19 11:47:43;;;;;;;54.17;26.03;;;2.60;99.90;;;;;;5042922;28;20433;-58
2022/12/19 11:50:21;;;;;;;62.23;26.90;;;2.60;99.90;;;;;;5034771;28;20521;-55
2022/12/19 11:52:55;;;;;;;73.20;28.00;;;2.60;99.90;;;;;;5030202;28;20513;-57
2022/12/19 11:55:29;;;;;;;53.53;25.33;;;2.70;99.90;;;;;;5046976;28;20480;-55
2022/12/19 11:57:56;;;;;;;58.70;25.20;;;2.70;99.90;;;;;;5043351;28;20430;-57
2022/12/19 12:00:23;;;;;;;55.73;25.97;;;2.70;99.90;;;;;;5042383;28;20436;-57
2022/12/19 12:03:10;;;;;;;59.27;26.53;;;2.70;99.90;;;;;;5045130;28;20429;-57
2022/12/19 12:05:46;;;;;;;48.60;23.60;;;2.70;99.90;;;;;;5036686;28;20469;-60
2022/12/19 12:08:30;;;;;;;54.83;25.10;;;2.70;99.90;;;;;;5035755;28;20433;-53
2022/12/19 12:11:02;;;;;;;55.43;25.33;;;2.70;99.90;;;;;;5037463;28;20998;-60
2022/12/19 12:13:41;;;;;;;53.70;25.00;;;2.60;99.90;;;;;;5042679;28;20422;-61
2022/12/19 12:16:15;;;;;;;49.10;23.43;;;2.60;99.90;;;;;;5039809;28;21139;-60
2022/12/19 12:18:49;;;;;;;51.77;23.93;;;2.60;99.90;;;;;;5047434;28;20859;-59
2022/12/19 12:21:27;;;;;;;51.17;23.70;;;2.60;99.90;;;;;;5034728;28;20491;-60
2022/12/19 12:24:11;;;;;;;54.53;24.53;;;2.70;99.90;;;;;;5036886;28;20458;-60
2022/12/19 12:26:48;;;;;;;54.27;23.60;;;2.70;99.90;;;;;;5025050;28;20666;-61
2022/12/19 12:29:17;;;;;;;52.13;23.70;;;2.70;99.90;;;;;;5040696;28;20421;-60
2022/12/19 12:32:16;;;;;;;44.37;24.40;;;2.70;99.90;;;;;;5036960;28;20521;-59
2022/12/19 12:35:03;;;;;;;40.93;20.57;;;2.70;99.90;;;;;;5039425;28;20457;-59
2022/12/19 12:37:52;;;;;;;44.70;21.70;;;2.80;99.90;;;;;;5024274;28;20439;-59
2022/12/19 12:40:27;;;;;;;45.53;19.30;;;2.80;99.90;;;;;;5036876;28;20435;-60
2022/12/19 12:43:14;;;;;;;59.10;21.80;;;2.90;99.90;;;;;;5018781;28;20436;-60
2022/12/19 12:45:42;;;;;;;43.50;19.80;;;2.90;99.90;;;;;;5043968;28;20457;-60
2022/12/19 12:48:26;;;;;;;47.60;21.30;;;2.90;99.90;;;;;;5044341;28;20423;-59
2022/12/19 12:50:53;;;;;;;53.23;23.00;;;2.90;99.90;;;;;;5017982;28;20421;-60